createdAt,value
2023-03-22T00:00:22.327Z,6.51
2023-03-22T00:00:54.187Z,6.51
2023-03-22T00:01:25.440Z,6.51
2023-03-22T00:01:58.304Z,6.51
2023-03-22T00:02:29.457Z,6.51
2023-03-22T00:03:02.448Z,6.51
2023-03-22T00:03:33.512Z,6.51
2023-03-22T00:04:06.128Z,6.40
2023-03-22T00:04:37.454Z,6.40
2023-03-22T00:05:10.354Z,6.40
2023-03-22T00:05:41.312Z,6.40
2023-03-22T00:06:14.019Z,6.57
2023-03-22T00:06:45.414Z,6.57
2023-03-22T00:07:18.239Z,6.57
2023-03-22T00:07:49.489Z,6.57
2023-03-22T00:08:22.075Z,6.72
2023-03-22T00:08:53.501Z,6.72
2023-03-22T00:09:26.359Z,6.67
2023-03-22T00:09:57.304Z,6.67
2023-03-22T00:10:30.721Z,6.67
2023-03-22T00:11:01.473Z,6.67
2023-03-22T00:11:34.210Z,6.67
2023-03-22T00:12:05.434Z,6.67
2023-03-22T00:12:38.489Z,6.67
2023-03-22T00:13:09.576Z,6.67
2023-03-22T00:13:42.090Z,6.67
2023-03-22T00:14:13.499Z,6.67
2023-03-22T00:14:46.242Z,6.67
2023-03-22T00:15:18.251Z,6.67
2023-03-22T00:15:50.648Z,6.67
2023-03-22T00:16:21.599Z,6.67
2023-03-22T00:16:54.055Z,6.52
2023-03-22T00:17:25.420Z,6.52
2023-03-22T00:17:59.115Z,6.41
2023-03-22T00:18:29.483Z,6.41
2023-03-22T00:19:02.193Z,6.41
2023-03-22T00:19:33.527Z,6.41
2023-03-22T00:20:06.270Z,6.41
2023-03-22T00:20:38.010Z,6.41
2023-03-22T00:21:10.265Z,6.41
2023-03-22T00:21:41.443Z,6.41
2023-03-22T00:22:14.545Z,6.41
2023-03-22T00:22:45.310Z,6.41
2023-03-22T00:23:18.297Z,6.41
2023-03-22T00:23:49.550Z,6.41
2023-03-22T00:24:22.211Z,6.41
2023-03-22T00:24:53.441Z,6.41
2023-03-22T00:25:26.614Z,6.30
2023-03-22T00:25:57.287Z,6.30
2023-03-22T00:26:30.398Z,6.41
2023-03-22T00:27:01.451Z,6.41
2023-03-22T00:27:34.305Z,6.30
2023-03-22T00:28:05.324Z,6.30
2023-03-22T00:28:38.320Z,6.30
2023-03-22T00:29:09.423Z,6.30
2023-03-22T00:29:42.240Z,6.30
2023-03-22T00:30:14.186Z,6.30
2023-03-22T00:30:46.532Z,6.30
2023-03-22T00:31:17.485Z,6.30
2023-03-22T00:31:50.227Z,6.30
2023-03-22T00:32:21.389Z,6.30
2023-03-22T00:32:54.295Z,6.30
2023-03-22T00:33:25.504Z,6.30
2023-03-22T00:33:58.164Z,6.30
2023-03-22T00:34:29.377Z,6.30
2023-03-22T00:35:02.853Z,6.30
2023-03-22T00:35:33.292Z,6.30
2023-03-22T00:36:06.194Z,6.30
2023-03-22T00:36:37.457Z,6.30
2023-03-22T00:37:10.388Z,6.30
2023-03-22T00:37:41.335Z,6.30
2023-03-22T00:38:14.484Z,6.19
2023-03-22T00:38:45.462Z,6.19
2023-03-22T00:39:18.145Z,6.19
2023-03-22T00:39:49.380Z,6.19
2023-03-22T00:40:22.459Z,6.19
2023-03-22T00:40:53.715Z,6.19
2023-03-22T00:41:26.031Z,6.19
2023-03-22T00:41:57.367Z,6.19
2023-03-22T00:42:30.380Z,6.19
2023-03-22T00:43:01.414Z,6.19
2023-03-22T00:43:34.136Z,6.08
2023-03-22T00:44:05.481Z,6.08
2023-03-22T00:44:38.307Z,6.34
2023-03-22T00:45:10.368Z,6.34
2023-03-22T00:45:42.428Z,6.23
2023-03-22T00:46:13.601Z,6.23
2023-03-22T00:46:46.001Z,6.23
2023-03-22T00:47:17.344Z,6.23
2023-03-22T00:47:50.395Z,6.18
2023-03-22T00:48:21.317Z,6.18
2023-03-22T00:48:54.197Z,6.18
2023-03-22T00:49:25.485Z,6.18
2023-03-22T00:49:58.147Z,6.18
2023-03-22T00:50:29.683Z,6.18
2023-03-22T00:51:02.331Z,6.18
2023-03-22T00:51:33.467Z,6.18
2023-03-22T00:52:06.458Z,6.18
2023-03-22T00:52:37.449Z,6.18
2023-03-22T00:53:10.344Z,6.07
2023-03-22T00:53:43.326Z,6.07
2023-03-22T00:54:14.000Z,6.07
2023-03-22T00:54:45.471Z,6.07
2023-03-22T00:55:18.518Z,6.07
2023-03-22T00:55:49.466Z,6.07
2023-03-22T00:56:22.084Z,6.07
2023-03-22T00:56:53.517Z,6.07
2023-03-22T00:57:26.122Z,5.96
2023-03-22T00:57:57.388Z,5.96
2023-03-22T00:58:30.212Z,5.96
2023-03-22T00:59:01.571Z,5.96
2023-03-22T00:59:34.226Z,5.96
2023-03-22T01:00:06.836Z,5.96
2023-03-22T01:00:38.633Z,5.84
2023-03-22T01:01:09.434Z,5.84
2023-03-22T01:01:42.211Z,5.84
2023-03-22T01:02:13.431Z,5.84
2023-03-22T01:02:46.237Z,5.84
2023-03-22T01:03:17.376Z,5.84
2023-03-22T01:03:50.300Z,5.74
2023-03-22T01:04:21.474Z,5.74
2023-03-22T01:04:54.241Z,5.74
2023-03-22T01:05:25.847Z,5.74
2023-03-22T01:05:58.345Z,5.74
2023-03-22T01:06:29.448Z,5.74
2023-03-22T01:07:02.163Z,5.74
2023-03-22T01:07:33.511Z,5.74
2023-03-22T01:08:07.317Z,5.74
2023-03-22T01:08:37.290Z,5.74
2023-03-22T01:09:10.205Z,5.74
2023-03-22T01:09:41.501Z,5.74
2023-03-22T01:10:14.540Z,5.69
2023-03-22T01:10:45.423Z,5.69
2023-03-22T01:11:18.193Z,5.85
2023-03-22T01:11:49.545Z,5.85
2023-03-22T01:12:22.096Z,5.85
2023-03-22T01:12:53.351Z,5.85
2023-03-22T01:13:26.442Z,5.85
2023-03-22T01:13:57.581Z,5.85
2023-03-22T01:14:30.115Z,5.85
2023-03-22T01:15:02.961Z,5.85
2023-03-22T01:15:34.527Z,5.85
2023-03-22T01:16:05.509Z,5.85
2023-03-22T01:16:38.092Z,5.85
2023-03-22T01:17:09.274Z,5.85
2023-03-22T01:17:42.311Z,5.85
2023-03-22T01:18:13.288Z,5.85
2023-03-22T01:18:46.132Z,5.85
2023-03-22T01:19:17.442Z,5.85
2023-03-22T01:19:50.225Z,5.74
2023-03-22T01:20:21.741Z,5.74
2023-03-22T01:20:55.149Z,5.74
2023-03-22T01:21:25.338Z,5.74
2023-03-22T01:21:58.214Z,5.74
2023-03-22T01:22:29.479Z,5.74
2023-03-22T01:23:02.541Z,5.74
2023-03-22T01:23:33.387Z,5.74
2023-03-22T01:24:06.369Z,5.74
2023-03-22T01:24:37.518Z,5.74
2023-03-22T01:25:10.399Z,5.74
2023-03-22T01:25:41.438Z,5.74
2023-03-22T01:26:14.229Z,5.74
2023-03-22T01:26:45.384Z,5.74
2023-03-22T01:27:18.357Z,5.63
2023-03-22T01:27:49.492Z,5.63
2023-03-22T01:28:22.239Z,5.63
2023-03-22T01:28:53.385Z,5.63
2023-03-22T01:29:26.092Z,5.63
2023-03-22T01:29:57.489Z,5.63
2023-03-22T01:30:31.507Z,5.63
2023-03-22T01:31:01.659Z,5.63
2023-03-22T01:31:34.283Z,5.63
2023-03-22T01:32:05.346Z,5.63
2023-03-22T01:32:38.262Z,5.63
2023-03-22T01:33:09.598Z,5.63
2023-03-22T01:33:42.074Z,5.51
2023-03-22T01:34:13.458Z,5.51
2023-03-22T01:34:46.155Z,5.51
2023-03-22T01:35:17.831Z,5.51
2023-03-22T01:35:50.189Z,5.51
2023-03-22T01:36:21.520Z,5.51
2023-03-22T01:36:55.165Z,5.51
2023-03-22T01:37:25.309Z,5.51
2023-03-22T01:37:58.185Z,5.51
2023-03-22T01:38:29.509Z,5.51
2023-03-22T01:39:02.521Z,5.41
2023-03-22T01:39:33.317Z,5.41
2023-03-22T01:40:06.462Z,5.41
2023-03-22T01:40:37.745Z,5.41
2023-03-22T01:41:10.200Z,5.41
2023-03-22T01:41:41.703Z,5.41
2023-03-22T01:42:14.467Z,5.41
2023-03-22T01:42:45.610Z,5.41
2023-03-22T01:43:18.213Z,5.41
2023-03-22T01:43:49.509Z,5.41
2023-03-22T01:44:22.279Z,5.41
2023-03-22T01:44:53.308Z,5.41
2023-03-22T01:45:27.448Z,5.41
2023-03-22T01:45:57.552Z,5.41
2023-03-22T01:46:30.332Z,5.41
2023-03-22T01:47:01.424Z,5.41
2023-03-22T01:47:34.191Z,5.36
2023-03-22T01:48:05.570Z,5.36
2023-03-22T01:48:39.281Z,5.36
2023-03-22T01:49:09.470Z,5.36
2023-03-22T01:49:42.223Z,5.36
2023-03-22T01:50:13.928Z,5.36
2023-03-22T01:50:46.229Z,5.36
2023-03-22T01:51:17.469Z,5.36
2023-03-22T01:51:50.518Z,5.36
2023-03-22T01:52:21.407Z,5.36
2023-03-22T01:52:54.318Z,5.25
2023-03-22T01:53:25.419Z,5.25
2023-03-22T01:53:58.152Z,5.25
2023-03-22T01:54:29.467Z,5.25
2023-03-22T01:55:02.679Z,5.25
2023-03-22T01:55:33.498Z,5.25
2023-03-22T01:56:06.232Z,5.25
2023-03-22T01:56:37.546Z,5.25
2023-03-22T01:57:11.029Z,5.25
2023-03-22T01:57:41.385Z,5.25
2023-03-22T01:58:14.154Z,5.25
2023-03-22T01:58:45.457Z,5.25
2023-03-22T01:59:18.394Z,5.25
2023-03-22T01:59:49.414Z,5.25
2023-03-22T02:00:23.250Z,5.25
2023-03-22T02:00:53.666Z,5.25
2023-03-22T02:01:26.193Z,5.25
2023-03-22T02:01:57.413Z,5.25
2023-03-22T02:02:30.356Z,5.25
2023-03-22T02:03:01.559Z,5.25
2023-03-22T02:03:34.306Z,5.25
2023-03-22T02:04:05.438Z,5.25
2023-03-22T02:04:39.163Z,5.41
2023-03-22T02:05:09.604Z,5.41
2023-03-22T02:05:42.251Z,5.41
2023-03-22T02:06:13.530Z,5.41
2023-03-22T02:06:46.329Z,5.41
2023-03-22T02:07:17.439Z,5.41
2023-03-22T02:07:50.425Z,5.41
2023-03-22T02:08:21.485Z,5.41
2023-03-22T02:08:54.217Z,5.30
2023-03-22T02:09:25.432Z,5.30
2023-03-22T02:09:58.338Z,5.41
2023-03-22T02:10:29.947Z,5.41
2023-03-22T02:11:02.388Z,5.30
2023-03-22T02:11:33.408Z,5.30
2023-03-22T02:12:06.816Z,5.41
2023-03-22T02:12:37.460Z,5.41
2023-03-22T02:13:10.393Z,5.30
2023-03-22T02:13:41.431Z,5.30
2023-03-22T02:14:14.326Z,5.30
2023-03-22T02:14:45.375Z,5.30
2023-03-22T02:15:19.271Z,5.30
2023-03-22T02:15:49.844Z,5.30
2023-03-22T02:16:22.347Z,5.30
2023-03-22T02:16:53.492Z,5.30
2023-03-22T02:17:27.150Z,5.30
2023-03-22T02:17:57.639Z,5.30
2023-03-22T02:18:30.113Z,5.30
2023-03-22T02:19:01.414Z,5.30
2023-03-22T02:19:34.282Z,5.30
2023-03-22T02:20:05.589Z,5.30
2023-03-22T02:20:38.428Z,5.30
2023-03-22T02:21:09.494Z,5.30
2023-03-22T02:21:42.548Z,5.30
2023-03-22T02:22:13.464Z,5.30
2023-03-22T02:22:46.229Z,5.30
2023-03-22T02:23:17.569Z,5.30
2023-03-22T02:23:51.047Z,5.41
2023-03-22T02:24:21.395Z,5.41
2023-03-22T02:24:54.349Z,5.30
2023-03-22T02:25:25.700Z,5.30
2023-03-22T02:25:58.188Z,5.30
2023-03-22T02:26:29.610Z,5.30
2023-03-22T02:27:02.528Z,5.30
2023-03-22T02:27:33.514Z,5.30
2023-03-22T02:28:06.372Z,5.41
2023-03-22T02:28:37.562Z,5.41
2023-03-22T02:29:10.516Z,5.41
2023-03-22T02:29:41.490Z,5.41
2023-03-22T02:30:16.960Z,5.41
2023-03-22T02:30:45.639Z,5.41
2023-03-22T02:31:18.270Z,5.41
2023-03-22T02:31:49.485Z,5.41
2023-03-22T02:32:22.605Z,5.41
2023-03-22T02:32:53.593Z,5.41
2023-03-22T02:33:26.099Z,5.41
2023-03-22T02:33:57.467Z,5.41
2023-03-22T02:34:30.204Z,5.41
2023-03-22T02:35:01.641Z,5.41
2023-03-22T02:35:34.253Z,5.41
2023-03-22T02:36:05.495Z,5.41
2023-03-22T02:36:38.356Z,5.41
2023-03-22T02:37:09.412Z,5.41
2023-03-22T02:37:42.349Z,5.41
2023-03-22T02:38:13.587Z,5.41
2023-03-22T02:38:53.215Z,5.41
2023-03-22T02:39:17.471Z,5.41
2023-03-22T02:39:49.561Z,5.41
2023-03-22T02:40:21.630Z,5.41
2023-03-22T02:40:53.685Z,5.41
2023-03-22T02:41:25.457Z,5.41
2023-03-22T02:41:57.539Z,5.41
2023-03-22T02:42:29.512Z,5.41
2023-03-22T02:43:01.520Z,5.41
2023-03-22T02:43:33.538Z,5.41
2023-03-22T02:44:05.417Z,5.41
2023-03-22T02:44:38.206Z,5.41
2023-03-22T02:45:10.501Z,5.41
2023-03-22T02:45:42.482Z,5.41
2023-03-22T02:46:13.530Z,5.41
2023-03-22T02:46:47.368Z,5.41
2023-03-22T02:47:17.575Z,5.41
2023-03-22T02:47:50.285Z,5.41
2023-03-22T02:48:21.583Z,5.41
2023-03-22T02:48:54.291Z,5.41
2023-03-22T02:49:25.338Z,5.41
2023-03-22T02:49:58.205Z,5.41
2023-03-22T02:50:29.787Z,5.41
2023-03-22T02:51:02.422Z,5.41
2023-03-22T02:51:33.375Z,5.30
2023-03-22T02:52:06.377Z,5.30
2023-03-22T02:52:37.470Z,5.30
2023-03-22T02:53:10.370Z,5.30
2023-03-22T02:53:41.388Z,5.30
2023-03-22T02:54:14.313Z,5.30
2023-03-22T02:54:45.501Z,5.30
2023-03-22T02:55:18.512Z,5.30
2023-03-22T02:55:49.474Z,5.30
2023-03-22T02:56:23.596Z,5.30
2023-03-22T02:56:53.463Z,5.30
2023-03-22T02:57:26.229Z,5.30
2023-03-22T02:57:57.507Z,5.30
2023-03-22T02:58:30.340Z,5.30
2023-03-22T02:59:01.499Z,5.30
2023-03-22T02:59:34.116Z,5.30
2023-03-22T03:00:06.938Z,5.18
2023-03-22T03:00:38.479Z,5.18
2023-03-22T03:01:09.635Z,5.18
2023-03-22T03:01:42.427Z,5.18
2023-03-22T03:02:13.463Z,5.02
2023-03-22T03:02:46.336Z,5.02
2023-03-22T03:03:17.449Z,5.18
2023-03-22T03:03:50.321Z,5.18
2023-03-22T03:04:21.415Z,5.18
2023-03-22T03:04:54.176Z,5.18
2023-03-22T03:05:25.883Z,5.18
2023-03-22T03:05:58.057Z,5.18
2023-03-22T03:06:29.574Z,5.07
2023-03-22T03:07:03.154Z,5.07
2023-03-22T03:07:33.535Z,5.07
2023-03-22T03:08:06.184Z,5.07
2023-03-22T03:08:37.506Z,5.07
2023-03-22T03:09:10.175Z,5.07
2023-03-22T03:09:41.352Z,5.07
2023-03-22T03:10:14.537Z,5.07
2023-03-22T03:10:45.496Z,5.07
2023-03-22T03:11:18.325Z,5.07
2023-03-22T03:11:49.352Z,5.02
2023-03-22T03:12:22.342Z,5.02
2023-03-22T03:12:53.502Z,5.02
2023-03-22T03:13:26.204Z,5.02
2023-03-22T03:13:57.415Z,5.02
2023-03-22T03:14:30.199Z,5.02
2023-03-22T03:15:02.979Z,5.02
2023-03-22T03:15:34.399Z,5.02
2023-03-22T03:16:05.490Z,5.02
2023-03-22T03:16:39.117Z,5.02
2023-03-22T03:17:09.393Z,4.86
2023-03-22T03:17:42.417Z,4.86
2023-03-22T03:18:13.507Z,4.92
2023-03-22T03:18:46.238Z,4.92
2023-03-22T03:19:17.415Z,4.75
2023-03-22T03:19:50.149Z,4.75
2023-03-22T03:20:21.837Z,4.92
2023-03-22T03:20:54.287Z,4.92
2023-03-22T03:21:25.438Z,4.81
2023-03-22T03:21:58.389Z,4.81
2023-03-22T03:22:29.531Z,4.81
2023-03-22T03:23:02.762Z,4.81
2023-03-22T03:23:33.593Z,4.81
2023-03-22T03:24:06.268Z,4.81
2023-03-22T03:24:37.565Z,4.81
2023-03-22T03:25:10.657Z,4.81
2023-03-22T03:25:41.698Z,4.81
2023-03-22T03:26:14.313Z,4.81
2023-03-22T03:26:45.521Z,4.81
2023-03-22T03:27:18.597Z,4.81
2023-03-22T03:27:49.674Z,4.69
2023-03-22T03:28:22.425Z,4.69
2023-03-22T03:28:53.653Z,4.69
2023-03-22T03:29:26.605Z,4.69
2023-03-22T03:29:57.559Z,4.69
2023-03-22T03:30:31.705Z,4.69
2023-03-22T03:31:01.689Z,4.69
2023-03-22T03:31:34.218Z,4.69
2023-03-22T03:32:05.689Z,4.69
2023-03-22T03:32:39.412Z,4.69
2023-03-22T03:33:09.676Z,4.58
2023-03-22T03:33:43.277Z,4.58
2023-03-22T03:34:13.617Z,4.58
2023-03-22T03:34:46.280Z,4.58
2023-03-22T03:35:17.786Z,4.58
2023-03-22T03:35:50.390Z,4.58
2023-03-22T03:36:21.557Z,4.58
2023-03-22T03:36:54.284Z,4.58
2023-03-22T03:37:25.445Z,4.58
2023-03-22T03:37:58.292Z,4.58
2023-03-22T03:38:29.632Z,4.53
2023-03-22T03:39:03.060Z,4.53
2023-03-22T03:39:33.517Z,4.53
2023-03-22T03:40:06.827Z,4.53
2023-03-22T03:40:37.744Z,4.53
2023-03-22T03:41:10.301Z,4.53
2023-03-22T03:41:41.537Z,4.53
2023-03-22T03:42:15.334Z,4.53
2023-03-22T03:42:45.440Z,4.42
2023-03-22T03:43:18.277Z,4.42
2023-03-22T03:43:49.660Z,4.42
2023-03-22T03:44:22.241Z,4.42
2023-03-22T03:44:53.516Z,4.42
2023-03-22T03:45:27.359Z,4.42
2023-03-22T03:45:57.659Z,4.42
2023-03-22T03:46:30.984Z,4.42
2023-03-22T03:47:01.482Z,4.31
2023-03-22T03:47:34.611Z,4.31
2023-03-22T03:48:05.360Z,4.31
2023-03-22T03:48:38.274Z,4.31
2023-03-22T03:49:09.564Z,4.31
2023-03-22T03:49:42.884Z,4.31
2023-03-22T03:50:13.690Z,4.31
2023-03-22T03:50:46.317Z,4.31
2023-03-22T03:51:17.612Z,4.31
2023-03-22T03:51:50.250Z,4.31
2023-03-22T03:52:21.465Z,4.31
2023-03-22T03:52:54.357Z,4.31
2023-03-22T03:53:25.336Z,4.46
2023-03-22T03:53:58.050Z,4.46
2023-03-22T03:54:29.488Z,4.46
2023-03-22T03:55:02.591Z,4.46
2023-03-22T03:55:33.428Z,4.46
2023-03-22T03:56:06.330Z,4.46
2023-03-22T03:56:37.525Z,4.46
2023-03-22T03:57:10.339Z,4.46
2023-03-22T03:57:41.482Z,4.46
2023-03-22T03:58:14.351Z,4.46
2023-03-22T03:58:45.640Z,4.46
2023-03-22T03:59:18.103Z,4.46
2023-03-22T03:59:49.488Z,4.46
2023-03-22T04:00:23.558Z,4.46
2023-03-22T04:00:53.493Z,4.46
2023-03-22T04:01:26.171Z,4.46
2023-03-22T04:01:57.495Z,4.46
2023-03-22T04:02:30.509Z,4.46
2023-03-22T04:03:01.407Z,4.46
2023-03-22T04:03:34.339Z,4.46
2023-03-22T04:04:05.685Z,4.46
2023-03-22T04:04:38.331Z,4.46
2023-03-22T04:05:09.771Z,4.46
2023-03-22T04:05:42.311Z,4.46
2023-03-22T04:06:13.445Z,4.46
2023-03-22T04:06:46.304Z,4.46
2023-03-22T04:07:17.517Z,4.46
2023-03-22T04:07:50.356Z,4.46
2023-03-22T04:08:21.428Z,4.46
2023-03-22T04:08:54.260Z,4.46
2023-03-22T04:09:25.470Z,4.46
2023-03-22T04:09:58.029Z,4.46
2023-03-22T04:10:29.763Z,4.46
2023-03-22T04:11:02.309Z,4.46
2023-03-22T04:11:33.694Z,4.46
2023-03-22T04:12:07.115Z,4.46
2023-03-22T04:12:37.554Z,4.46
2023-03-22T04:13:10.545Z,4.46
2023-03-22T04:13:41.449Z,4.46
2023-03-22T04:14:14.170Z,4.46
2023-03-22T04:14:45.516Z,4.46
2023-03-22T04:15:19.147Z,4.46
2023-03-22T04:15:49.563Z,4.46
2023-03-22T04:16:22.483Z,4.46
2023-03-22T04:16:53.590Z,4.46
2023-03-22T04:17:27.355Z,4.46
2023-03-22T04:17:57.497Z,4.46
2023-03-22T04:18:30.309Z,4.46
2023-03-22T04:19:01.608Z,4.46
2023-03-22T04:19:34.111Z,4.46
2023-03-22T04:20:06.015Z,4.46
2023-03-22T04:20:38.768Z,4.46
2023-03-22T04:21:09.411Z,4.46
2023-03-22T04:21:43.266Z,4.46
2023-03-22T04:22:13.511Z,4.34
2023-03-22T04:22:46.334Z,4.34
2023-03-22T04:23:17.487Z,4.46
2023-03-22T04:23:50.317Z,4.46
2023-03-22T04:24:21.563Z,4.34
2023-03-22T04:24:54.270Z,4.34
2023-03-22T04:25:25.793Z,4.34
2023-03-22T04:25:58.326Z,4.34
2023-03-22T04:26:29.328Z,4.34
2023-03-22T04:27:02.286Z,4.34
2023-03-22T04:27:33.499Z,4.34
2023-03-22T04:28:06.392Z,4.34
2023-03-22T04:28:37.505Z,4.34
2023-03-22T04:28:53.753Z,4.34
2023-03-22T04:29:25.342Z,4.34
2023-03-22T04:29:57.471Z,4.23
2023-03-22T04:30:30.699Z,4.23
2023-03-22T04:31:01.319Z,4.23
2023-03-22T04:31:34.229Z,4.23
2023-03-22T04:32:05.579Z,4.23
2023-03-22T04:32:38.369Z,4.23
2023-03-22T04:33:09.589Z,4.23
2023-03-22T04:33:42.258Z,4.23
2023-03-22T04:34:13.605Z,4.23
2023-03-22T04:34:46.526Z,4.23
2023-03-22T04:35:17.745Z,4.23
2023-03-22T04:35:50.420Z,4.23
2023-03-22T04:36:22.516Z,4.18
2023-03-22T04:36:54.228Z,4.18
2023-03-22T04:37:25.455Z,4.18
2023-03-22T04:37:58.428Z,4.18
2023-03-22T04:38:29.341Z,4.18
2023-03-22T04:39:02.251Z,4.18
2023-03-22T04:39:33.480Z,4.18
2023-03-22T04:40:06.601Z,4.18
2023-03-22T04:40:37.866Z,4.18
2023-03-22T04:41:10.364Z,4.18
2023-03-22T04:41:41.897Z,4.08
2023-03-22T04:42:14.191Z,4.08
2023-03-22T04:42:45.428Z,4.08
2023-03-22T04:43:18.189Z,4.08
2023-03-22T04:43:49.619Z,4.08
2023-03-22T04:44:22.303Z,4.08
2023-03-22T04:44:53.472Z,4.08
2023-03-22T04:45:27.473Z,4.08
2023-03-22T04:45:57.636Z,4.08
2023-03-22T04:46:30.426Z,4.08
2023-03-22T04:47:01.526Z,4.08
2023-03-22T04:47:34.488Z,4.08
2023-03-22T04:48:05.495Z,4.08
2023-03-22T04:48:38.421Z,4.08
2023-03-22T04:49:09.636Z,4.08
2023-03-22T04:49:42.249Z,4.08
2023-03-22T04:50:13.822Z,4.08
2023-03-22T04:50:46.293Z,4.08
2023-03-22T04:51:17.472Z,3.97
2023-03-22T04:51:50.385Z,3.97
2023-03-22T04:52:21.555Z,3.97
2023-03-22T04:52:54.436Z,3.97
2023-03-22T04:53:25.370Z,3.97
2023-03-22T04:53:58.203Z,3.97
2023-03-22T04:54:29.508Z,3.97
2023-03-22T04:55:02.691Z,3.97
2023-03-22T04:55:33.529Z,3.97
2023-03-22T04:56:07.325Z,3.97
2023-03-22T04:56:37.624Z,3.97
2023-03-22T04:57:10.380Z,3.97
2023-03-22T04:57:41.528Z,3.97
2023-03-22T04:58:14.397Z,3.97
2023-03-22T04:58:45.370Z,3.97
2023-03-22T04:59:18.313Z,3.97
2023-03-22T04:59:49.441Z,3.85
2023-03-22T05:00:23.965Z,3.85
2023-03-22T05:00:53.573Z,3.85
2023-03-22T05:01:26.439Z,3.85
2023-03-22T05:01:57.654Z,3.85
2023-03-22T05:02:30.486Z,3.85
2023-03-22T05:03:01.542Z,3.85
2023-03-22T05:03:34.310Z,3.85
2023-03-22T05:04:05.640Z,3.85
2023-03-22T05:04:39.032Z,3.85
2023-03-22T05:05:09.709Z,3.74
2023-03-22T05:05:42.552Z,3.74
2023-03-22T05:06:13.420Z,3.74
2023-03-22T05:06:46.266Z,3.74
2023-03-22T05:07:17.483Z,3.74
2023-03-22T05:07:50.318Z,3.74
2023-03-22T05:08:21.454Z,3.74
2023-03-22T05:08:54.196Z,3.74
2023-03-22T05:09:25.571Z,3.74
2023-03-22T05:09:58.078Z,3.74
2023-03-22T05:10:29.859Z,3.69
2023-03-22T05:11:02.169Z,3.69
2023-03-22T05:11:33.428Z,3.69
2023-03-22T05:12:06.447Z,3.69
2023-03-22T05:12:37.479Z,3.69
2023-03-22T05:13:10.460Z,3.69
2023-03-22T05:13:41.403Z,3.69
2023-03-22T05:14:14.672Z,3.69
2023-03-22T05:14:45.505Z,3.69
2023-03-22T05:15:19.269Z,3.69
2023-03-22T05:15:49.653Z,3.69
2023-03-22T05:16:22.400Z,3.69
2023-03-22T05:16:53.569Z,3.58
2023-03-22T05:17:26.259Z,3.58
2023-03-22T05:17:57.436Z,3.69
2023-03-22T05:18:30.489Z,3.69
2023-03-22T05:19:01.868Z,3.69
2023-03-22T05:19:34.604Z,3.69
2023-03-22T05:20:06.014Z,3.69
2023-03-22T05:20:38.973Z,3.69
2023-03-22T05:21:09.710Z,3.69
2023-03-22T05:21:42.468Z,3.69
2023-03-22T05:22:13.768Z,3.69
2023-03-22T05:22:46.486Z,3.69
2023-03-22T05:23:17.624Z,3.69
2023-03-22T05:23:51.630Z,3.69
2023-03-22T05:24:21.844Z,3.69
2023-03-22T05:24:54.528Z,3.69
2023-03-22T05:25:26.164Z,3.69
2023-03-22T05:25:58.584Z,3.69
2023-03-22T05:26:29.785Z,3.69
2023-03-22T05:27:02.552Z,3.69
2023-03-22T05:27:33.719Z,3.69
2023-03-22T05:28:06.792Z,3.69
2023-03-22T05:28:37.684Z,3.69
2023-03-22T05:29:10.510Z,3.69
2023-03-22T05:29:41.877Z,3.69
2023-03-22T05:30:15.216Z,3.69
2023-03-22T05:30:45.791Z,3.58
2023-03-22T05:31:18.535Z,3.58
2023-03-22T05:31:49.678Z,3.69
2023-03-22T05:32:22.462Z,3.69
2023-03-22T05:32:53.770Z,3.58
2023-03-22T05:33:26.442Z,3.58
2023-03-22T05:33:57.682Z,3.58
2023-03-22T05:34:30.484Z,3.58
2023-03-22T05:35:02.216Z,3.58
2023-03-22T05:35:34.638Z,3.58
2023-03-22T05:36:05.807Z,3.58
2023-03-22T05:36:39.260Z,3.58
2023-03-22T05:37:09.845Z,3.58
2023-03-22T05:37:42.456Z,3.58
2023-03-22T05:38:13.624Z,3.58
2023-03-22T05:38:46.467Z,3.58
2023-03-22T05:39:17.651Z,3.58
2023-03-22T05:39:50.574Z,3.58
2023-03-22T05:40:22.102Z,3.58
2023-03-22T05:40:54.735Z,3.58
2023-03-22T05:41:25.679Z,3.69
2023-03-22T05:41:58.546Z,3.69
2023-03-22T05:42:29.828Z,3.58
2023-03-22T05:43:02.567Z,3.58
2023-03-22T05:43:33.707Z,3.69
2023-03-22T05:44:06.526Z,3.69
2023-03-22T05:44:37.852Z,3.69
2023-03-22T05:45:11.570Z,3.69
2023-03-22T05:45:42.132Z,3.69
2023-03-22T05:46:14.656Z,3.69
2023-03-22T05:46:45.672Z,3.69
2023-03-22T05:47:18.388Z,3.69
2023-03-22T05:47:49.860Z,3.69
2023-03-22T05:48:22.683Z,3.69
2023-03-22T05:48:53.718Z,3.69
2023-03-22T05:49:26.383Z,3.69
2023-03-22T05:49:57.789Z,3.74
2023-03-22T05:50:30.814Z,3.74
2023-03-22T05:51:01.761Z,3.69
2023-03-22T05:51:34.662Z,3.69
2023-03-22T05:52:05.653Z,3.74
2023-03-22T05:52:38.581Z,3.74
2023-03-22T05:53:09.768Z,3.74
2023-03-22T05:53:43.838Z,3.74
2023-03-22T05:54:13.813Z,3.74
2023-03-22T05:54:46.685Z,3.74
2023-03-22T05:55:18.138Z,3.74
2023-03-22T05:55:50.609Z,3.74
2023-03-22T05:56:21.937Z,3.74
2023-03-22T05:56:55.852Z,3.74
2023-03-22T05:57:25.902Z,3.74
2023-03-22T05:57:58.692Z,3.74
2023-03-22T05:58:29.898Z,3.74
2023-03-22T05:59:02.423Z,3.74
2023-03-22T05:59:33.699Z,3.74
2023-03-22T06:00:07.843Z,3.74
2023-03-22T06:00:38.094Z,3.74
2023-03-22T06:01:21.757Z,3.74
2023-03-22T06:01:41.875Z,3.85
2023-03-22T06:02:14.061Z,3.85
2023-03-22T06:02:46.004Z,3.85
2023-03-22T06:03:17.824Z,3.85
2023-03-22T06:03:50.552Z,3.85
2023-03-22T06:04:21.838Z,3.85
2023-03-22T06:04:54.587Z,3.85
2023-03-22T06:05:26.013Z,3.85
2023-03-22T06:05:58.630Z,3.97
2023-03-22T06:06:29.726Z,3.97
2023-03-22T06:07:02.494Z,3.97
2023-03-22T06:07:33.651Z,3.97
2023-03-22T06:08:06.680Z,3.97
2023-03-22T06:08:37.836Z,3.97
2023-03-22T06:09:16.403Z,3.97
2023-03-22T06:09:41.795Z,3.97
2023-03-22T06:10:14.736Z,4.08
2023-03-22T06:10:45.744Z,4.08
2023-03-22T06:11:18.608Z,4.08
2023-03-22T06:11:49.805Z,4.08
2023-03-22T06:12:22.743Z,4.08
2023-03-22T06:12:53.750Z,4.08
2023-03-22T06:13:26.774Z,4.18
2023-03-22T06:13:58.211Z,4.18
2023-03-22T06:14:30.826Z,4.18
2023-03-22T06:15:03.311Z,4.18
2023-03-22T06:15:34.503Z,4.18
2023-03-22T06:16:05.876Z,4.18
2023-03-22T06:16:39.549Z,4.23
2023-03-22T06:17:09.752Z,4.23
2023-03-22T06:17:42.872Z,4.23
2023-03-22T06:18:13.868Z,4.23
2023-03-22T06:18:47.454Z,4.34
2023-03-22T06:19:17.815Z,4.34
2023-03-22T06:19:52.935Z,4.46
2023-03-22T06:20:22.034Z,4.46
2023-03-22T06:20:54.631Z,4.46
2023-03-22T06:21:25.845Z,4.46
2023-03-22T06:21:58.542Z,4.57
2023-03-22T06:22:29.768Z,4.57
2023-03-22T06:23:02.909Z,4.68
2023-03-22T06:23:33.829Z,4.68
2023-03-22T06:24:06.399Z,4.73
2023-03-22T06:24:37.816Z,4.73
2023-03-22T06:25:10.924Z,4.73
2023-03-22T06:25:41.720Z,4.73
2023-03-22T06:26:14.676Z,4.84
2023-03-22T06:26:45.802Z,4.84
2023-03-22T06:27:18.751Z,4.96
2023-03-22T06:27:49.738Z,4.96
2023-03-22T06:28:22.751Z,5.07
2023-03-22T06:28:53.863Z,5.07
2023-03-22T06:29:26.467Z,5.07
2023-03-22T06:29:57.706Z,5.07
2023-03-22T06:30:31.636Z,5.18
2023-03-22T06:31:01.871Z,5.18
2023-03-22T06:31:34.597Z,5.23
2023-03-22T06:32:05.790Z,5.23
2023-03-22T06:32:41.707Z,5.23
2023-03-22T06:33:09.846Z,5.23
2023-03-22T06:33:42.608Z,5.33
2023-03-22T06:34:13.802Z,5.33
2023-03-22T06:34:46.554Z,5.45
2023-03-22T06:35:18.140Z,5.45
2023-03-22T06:35:51.484Z,5.56
2023-03-22T06:36:21.779Z,5.56
2023-03-22T06:36:54.479Z,5.67
2023-03-22T06:37:25.659Z,5.67
2023-03-22T06:37:58.615Z,5.72
2023-03-22T06:38:29.853Z,5.72
2023-03-22T06:39:04.224Z,5.83
2023-03-22T06:39:34.311Z,5.83
2023-03-22T06:40:06.799Z,5.95
2023-03-22T06:40:37.869Z,5.95
2023-03-22T06:41:10.408Z,5.95
2023-03-22T06:41:41.761Z,5.95
2023-03-22T06:42:14.617Z,6.06
2023-03-22T06:42:45.708Z,6.06
2023-03-22T06:43:18.398Z,6.22
2023-03-22T06:43:49.780Z,6.22
2023-03-22T06:44:22.804Z,6.33
2023-03-22T06:44:53.728Z,6.33
2023-03-22T06:45:27.670Z,6.33
2023-03-22T06:45:57.988Z,6.33
2023-03-22T06:46:30.588Z,6.55
2023-03-22T06:47:01.880Z,6.55
2023-03-22T06:47:34.611Z,6.55
2023-03-22T06:48:05.729Z,6.55
2023-03-22T06:48:38.554Z,6.66
2023-03-22T06:49:09.779Z,6.66
2023-03-22T06:49:42.742Z,6.82
2023-03-22T06:50:13.929Z,6.82
2023-03-22T06:50:46.853Z,6.94
2023-03-22T06:51:17.736Z,6.94
2023-03-22T06:51:50.362Z,6.94
2023-03-22T06:52:21.791Z,6.94
2023-03-22T06:52:54.870Z,7.05
2023-03-22T06:53:25.835Z,7.05
2023-03-22T06:53:58.712Z,7.16
2023-03-22T06:54:31.614Z,7.16
2023-03-22T06:55:03.469Z,7.21
2023-03-22T06:55:34.251Z,7.21
2023-03-22T06:56:07.295Z,7.32
2023-03-22T06:56:37.996Z,7.32
2023-03-22T06:57:10.711Z,7.44
2023-03-22T06:57:41.736Z,7.44
2023-03-22T06:58:14.816Z,7.28
2023-03-22T06:58:45.895Z,7.28
2023-03-22T06:59:18.931Z,7.39
2023-03-22T06:59:49.780Z,7.39
2023-03-22T07:00:23.721Z,7.50
2023-03-22T07:00:53.912Z,7.50
2023-03-22T07:01:26.751Z,7.55
2023-03-22T07:01:57.696Z,7.55
2023-03-22T07:02:30.701Z,7.66
2023-03-22T07:03:01.741Z,7.66
2023-03-22T07:03:34.533Z,7.61
2023-03-22T07:04:05.932Z,7.61
2023-03-22T07:04:39.638Z,7.44
2023-03-22T07:05:10.059Z,7.44
2023-03-22T07:05:42.830Z,7.55